sensor_id;sensor_type;location;lat;lon;timestamp;P1;durP1;ratioP1;P2;durP2;ratioP2
22332;SDS011;11334;36.986;-121.936;2023-06-19T00:00:41;8.18;;;3.13;;
22332;SDS011;11334;36.986;-121.936;2023-06-19T00:03:07;12.98;;;3.72;;
22332;SDS011;11334;36.986;-121.936;2023-06-19T00:05:34;9.57;;;3.67;;
22332;SDS011;11334;36.986;-121.936;2023-06-19T00:08:00;9.48;;;3.15;;
22332;SDS011;11334;36.986;-121.936;2023-06-19T00:10:28;10.40;;;3.05;;
22332;SDS011;11334;36.986;-121.936;2023-06-19T00:12:55;12.38;;;2.80;;
22332;SDS011;11334;36.986;-121.936;2023-06-19T00:15:21;12.25;;;3.53;;
22332;SDS011;11334;36.986;-121.936;2023-06-19T00:17:47;11.15;;;3.33;;
22332;SDS011;11334;36.986;-121.936;2023-06-19T00:20:13;11.65;;;2.83;;
22332;SDS011;11334;36.986;-121.936;2023-06-19T00:22:40;13.10;;;3.17;;
22332;SDS011;11334;36.986;-121.936;2023-06-19T00:25:06;13.35;;;3.13;;
22332;SDS011;11334;36.986;-121.936;2023-06-19T00:27:33;11.30;;;2.95;;
22332;SDS011;11334;36.986;-121.936;2023-06-19T00:29:59;12.65;;;3.40;;
22332;SDS011;11334;36.986;-121.936;2023-06-19T00:32:29;10.25;;;3.00;;
22332;SDS011;11334;36.986;-121.936;2023-06-19T00:34:56;9.93;;;2.97;;
22332;SDS011;11334;36.986;-121.936;2023-06-19T00:37:22;10.55;;;3.60;;
22332;SDS011;11334;36.986;-121.936;2023-06-19T00:39:48;9.65;;;3.22;;
22332;SDS011;11334;36.986;-121.936;2023-06-19T00:42:14;8.32;;;3.13;;
22332;SDS011;11334;36.986;-121.936;2023-06-19T00:44:41;10.95;;;3.67;;
22332;SDS011;11334;36.986;-121.936;2023-06-19T00:47:07;11.95;;;3.45;;
22332;SDS011;11334;36.986;-121.936;2023-06-19T00:49:33;8.70;;;3.45;;
22332;SDS011;11334;36.986;-121.936;2023-06-19T00:52:00;13.63;;;3.63;;
22332;SDS011;11334;36.986;-121.936;2023-06-19T00:54:27;13.93;;;3.20;;
22332;SDS011;11334;36.986;-121.936;2023-06-19T00:56:55;11.55;;;3.28;;
22332;SDS011;11334;36.986;-121.936;2023-06-19T00:59:22;10.27;;;3.38;;
22332;SDS011;11334;36.986;-121.936;2023-06-19T01:01:48;11.90;;;3.38;;
22332;SDS011;11334;36.986;-121.936;2023-06-19T01:04:14;11.15;;;3.83;;
22332;SDS011;11334;36.986;-121.936;2023-06-19T01:09:25;14.98;;;3.95;;
22332;SDS011;11334;36.986;-121.936;2023-06-19T01:11:58;9.73;;;3.17;;
22332;SDS011;11334;36.986;-121.936;2023-06-19T01:14:52;9.90;;;3.05;;
22332;SDS011;11334;36.986;-121.936;2023-06-19T01:17:22;12.15;;;3.50;;
22332;SDS011;11334;36.986;-121.936;2023-06-19T01:19:50;11.43;;;3.60;;
22332;SDS011;11334;36.986;-121.936;2023-06-19T01:22:26;13.73;;;3.65;;
22332;SDS011;11334;36.986;-121.936;2023-06-19T01:24:55;11.30;;;3.55;;
22332;SDS011;11334;36.986;-121.936;2023-06-19T01:27:22;8.38;;;2.65;;
22332;SDS011;11334;36.986;-121.936;2023-06-19T01:29:51;7.45;;;2.45;;
22332;SDS011;11334;36.986;-121.936;2023-06-19T01:32:22;5.65;;;1.55;;
22332;SDS011;11334;36.986;-121.936;2023-06-19T01:35:08;5.13;;;1.23;;
22332;SDS011;11334;36.986;-121.936;2023-06-19T01:37:37;1.67;;;0.73;;
22332;SDS011;11334;36.986;-121.936;2023-06-19T01:40:05;1.90;;;0.93;;
22332;SDS011;11334;36.986;-121.936;2023-06-19T01:42:35;10.68;;;2.88;;
22332;SDS011;11334;36.986;-121.936;2023-06-19T01:45:04;2.70;;;1.10;;
22332;SDS011;11334;36.986;-121.936;2023-06-19T01:47:32;1.90;;;0.85;;
22332;SDS011;11334;36.986;-121.936;2023-06-19T01:49:58;2.65;;;1.27;;
22332;SDS011;11334;36.986;-121.936;2023-06-19T01:52:24;1.10;;;1.00;;
22332;SDS011;11334;36.986;-121.936;2023-06-19T01:54:51;2.53;;;0.73;;
22332;SDS011;11334;36.986;-121.936;2023-06-19T01:57:17;6.05;;;1.02;;
22332;SDS011;11334;36.986;-121.936;2023-06-19T01:59:44;2.28;;;0.93;;
22332;SDS011;11334;36.986;-121.936;2023-06-19T02:02:13;2.58;;;1.10;;
22332;SDS011;11334;36.986;-121.936;2023-06-19T02:04:39;1.48;;;0.70;;
22332;SDS011;11334;36.986;-121.936;2023-06-19T02:07:05;2.15;;;0.73;;
22332;SDS011;11334;36.986;-121.936;2023-06-19T02:09:32;2.25;;;0.80;;
22332;SDS011;11334;36.986;-121.936;2023-06-19T02:11:58;0.70;;;0.50;;
22332;SDS011;11334;36.986;-121.936;2023-06-19T02:14:24;2.40;;;1.45;;
22332;SDS011;11334;36.986;-121.936;2023-06-19T02:16:51;3.53;;;0.88;;
22332;SDS011;11334;36.986;-121.936;2023-06-19T02:19:17;3.35;;;0.88;;
22332;SDS011;11334;36.986;-121.936;2023-06-19T02:21:43;1.13;;;0.88;;
22332;SDS011;11334;36.986;-121.936;2023-06-19T02:24:09;1.05;;;0.55;;
22332;SDS011;11334;36.986;-121.936;2023-06-19T02:26:36;4.57;;;0.70;;
22332;SDS011;11334;36.986;-121.936;2023-06-19T02:29:02;4.57;;;0.90;;
22332;SDS011;11334;36.986;-121.936;2023-06-19T02:31:28;2.50;;;0.80;;
22332;SDS011;11334;36.986;-121.936;2023-06-19T02:33:54;2.47;;;0.73;;
22332;SDS011;11334;36.986;-121.936;2023-06-19T02:36:20;3.33;;;0.77;;
22332;SDS011;11334;36.986;-121.936;2023-06-19T02:38:47;2.35;;;0.70;;
22332;SDS011;11334;36.986;-121.936;2023-06-19T02:41:13;1.65;;;0.70;;
22332;SDS011;11334;36.986;-121.936;2023-06-19T02:43:41;2.15;;;0.60;;
22332;SDS011;11334;36.986;-121.936;2023-06-19T02:46:08;2.20;;;0.65;;
22332;SDS011;11334;36.986;-121.936;2023-06-19T02:48:34;2.42;;;0.80;;
22332;SDS011;11334;36.986;-121.936;2023-06-19T02:51:01;2.67;;;0.85;;
22332;SDS011;11334;36.986;-121.936;2023-06-19T02:53:27;2.40;;;0.82;;
22332;SDS011;11334;36.986;-121.936;2023-06-19T02:55:53;1.40;;;0.60;;
22332;SDS011;11334;36.986;-121.936;2023-06-19T02:58:19;1.02;;;0.60;;
22332;SDS011;11334;36.986;-121.936;2023-06-19T03:00:46;1.70;;;0.63;;
22332;SDS011;11334;36.986;-121.936;2023-06-19T03:03:12;1.33;;;0.63;;
22332;SDS011;11334;36.986;-121.936;2023-06-19T03:05:38;1.95;;;0.88;;
22332;SDS011;11334;36.986;-121.936;2023-06-19T03:08:04;1.85;;;0.70;;
22332;SDS011;11334;36.986;-121.936;2023-06-19T03:10:31;1.00;;;0.85;;
22332;SDS011;11334;36.986;-121.936;2023-06-19T03:12:57;0.80;;;0.45;;
22332;SDS011;11334;36.986;-121.936;2023-06-19T03:15:26;0.85;;;0.52;;
22332;SDS011;11334;36.986;-121.936;2023-06-19T03:17:53;3.17;;;0.82;;
22332;SDS011;11334;36.986;-121.936;2023-06-19T03:20:19;2.55;;;0.80;;
22332;SDS011;11334;36.986;-121.936;2023-06-19T03:22:45;2.10;;;0.70;;
22332;SDS011;11334;36.986;-121.936;2023-06-19T03:25:13;3.05;;;0.75;;
22332;SDS011;11334;36.986;-121.936;2023-06-19T03:27:39;2.80;;;0.70;;
22332;SDS011;11334;36.986;-121.936;2023-06-19T03:30:05;1.70;;;0.70;;
22332;SDS011;11334;36.986;-121.936;2023-06-19T03:32:33;2.85;;;0.73;;
22332;SDS011;11334;36.986;-121.936;2023-06-19T03:35:00;1.70;;;1.20;;
22332;SDS011;11334;36.986;-121.936;2023-06-19T03:37:27;2.45;;;0.70;;
22332;SDS011;11334;36.986;-121.936;2023-06-19T03:39:54;3.63;;;1.00;;
22332;SDS011;11334;36.986;-121.936;2023-06-19T03:42:20;3.15;;;0.90;;
22332;SDS011;11334;36.986;-121.936;2023-06-19T03:44:47;1.77;;;0.60;;
22332;SDS011;11334;36.986;-121.936;2023-06-19T03:47:13;2.05;;;0.68;;
22332;SDS011;11334;36.986;-121.936;2023-06-19T03:49:39;2.55;;;0.65;;
22332;SDS011;11334;36.986;-121.936;2023-06-19T03:52:06;2.47;;;0.63;;
22332;SDS011;11334;36.986;-121.936;2023-06-19T03:54:32;0.95;;;0.50;;
22332;SDS011;11334;36.986;-121.936;2023-06-19T03:56:58;2.78;;;0.80;;
22332;SDS011;11334;36.986;-121.936;2023-06-19T03:59:25;1.55;;;0.65;;
22332;SDS011;11334;36.986;-121.936;2023-06-19T04:01:51;3.00;;;0.80;;
22332;SDS011;11334;36.986;-121.936;2023-06-19T04:04:17;2.00;;;1.10;;
22332;SDS011;11334;36.986;-121.936;2023-06-19T04:06:44;3.40;;;1.10;;
22332;SDS011;11334;36.986;-121.936;2023-06-19T04:09:12;2.83;;;1.30;;
22332;SDS011;11334;36.986;-121.936;2023-06-19T04:11:38;2.03;;;0.82;;
22332;SDS011;11334;36.986;-121.936;2023-06-19T04:14:04;1.33;;;0.75;;
22332;SDS011;11334;36.986;-121.936;2023-06-19T04:16:30;3.42;;;0.80;;
22332;SDS011;11334;36.986;-121.936;2023-06-19T04:18:57;4.53;;;1.10;;
22332;SDS011;11334;36.986;-121.936;2023-06-19T04:21:23;1.50;;;0.82;;
22332;SDS011;11334;36.986;-121.936;2023-06-19T04:23:50;3.33;;;1.17;;
22332;SDS011;11334;36.986;-121.936;2023-06-19T04:26:16;3.63;;;1.08;;
22332;SDS011;11334;36.986;-121.936;2023-06-19T04:28:43;3.30;;;1.00;;
22332;SDS011;11334;36.986;-121.936;2023-06-19T04:31:09;3.22;;;0.98;;
22332;SDS011;11334;36.986;-121.936;2023-06-19T04:33:35;2.95;;;0.85;;
22332;SDS011;11334;36.986;-121.936;2023-06-19T04:36:02;2.63;;;0.88;;
22332;SDS011;11334;36.986;-121.936;2023-06-19T04:38:28;2.33;;;1.05;;
22332;SDS011;11334;36.986;-121.936;2023-06-19T04:40:54;1.85;;;0.60;;
22332;SDS011;11334;36.986;-121.936;2023-06-19T04:43:22;2.70;;;0.80;;
22332;SDS011;11334;36.986;-121.936;2023-06-19T04:45:50;3.00;;;0.80;;
22332;SDS011;11334;36.986;-121.936;2023-06-19T04:48:19;3.40;;;0.88;;
22332;SDS011;11334;36.986;-121.936;2023-06-19T04:50:50;1.58;;;0.70;;
22332;SDS011;11334;36.986;-121.936;2023-06-19T04:53:17;4.63;;;1.20;;
22332;SDS011;11334;36.986;-121.936;2023-06-19T04:55:43;3.30;;;0.73;;
22332;SDS011;11334;36.986;-121.936;2023-06-19T04:58:13;2.40;;;0.63;;
22332;SDS011;11334;36.986;-121.936;2023-06-19T05:00:39;3.78;;;0.90;;
22332;SDS011;11334;36.986;-121.936;2023-06-19T05:03:05;4.18;;;0.90;;
22332;SDS011;11334;36.986;-121.936;2023-06-19T05:05:32;2.25;;;0.73;;
22332;SDS011;11334;36.986;-121.936;2023-06-19T05:07:59;3.83;;;0.77;;
22332;SDS011;11334;36.986;-121.936;2023-06-19T05:10:25;2.40;;;1.23;;
22332;SDS011;11334;36.986;-121.936;2023-06-19T05:12:52;3.80;;;1.13;;
22332;SDS011;11334;36.986;-121.936;2023-06-19T05:15:18;2.05;;;0.60;;
22332;SDS011;11334;36.986;-121.936;2023-06-19T05:17:44;3.28;;;0.73;;
22332;SDS011;11334;36.986;-121.936;2023-06-19T05:20:12;3.45;;;1.00;;
22332;SDS011;11334;36.986;-121.936;2023-06-19T05:22:38;3.22;;;0.65;;
22332;SDS011;11334;36.986;-121.936;2023-06-19T05:25:04;3.15;;;0.80;;
22332;SDS011;11334;36.986;-121.936;2023-06-19T05:27:31;2.65;;;1.00;;
22332;SDS011;11334;36.986;-121.936;2023-06-19T05:29:58;2.33;;;0.75;;
22332;SDS011;11334;36.986;-121.936;2023-06-19T05:32:24;2.15;;;0.73;;
22332;SDS011;11334;36.986;-121.936;2023-06-19T05:34:50;4.75;;;0.88;;
22332;SDS011;11334;36.986;-121.936;2023-06-19T05:37:17;5.47;;;0.93;;
22332;SDS011;11334;36.986;-121.936;2023-06-19T05:39:43;3.53;;;0.90;;
22332;SDS011;11334;36.986;-121.936;2023-06-19T05:42:09;2.10;;;1.00;;
22332;SDS011;11334;36.986;-121.936;2023-06-19T05:44:35;2.63;;;0.93;;
22332;SDS011;11334;36.986;-121.936;2023-06-19T05:47:01;4.82;;;0.90;;
22332;SDS011;11334;36.986;-121.936;2023-06-19T05:49:28;2.65;;;0.70;;
22332;SDS011;11334;36.986;-121.936;2023-06-19T05:51:54;3.53;;;0.73;;
22332;SDS011;11334;36.986;-121.936;2023-06-19T05:54:24;4.07;;;0.98;;
22332;SDS011;11334;36.986;-121.936;2023-06-19T05:56:52;2.88;;;0.85;;
22332;SDS011;11334;36.986;-121.936;2023-06-19T05:59:18;3.13;;;0.93;;
22332;SDS011;11334;36.986;-121.936;2023-06-19T06:01:44;1.73;;;0.68;;
22332;SDS011;11334;36.986;-121.936;2023-06-19T06:04:11;1.70;;;0.80;;
22332;SDS011;11334;36.986;-121.936;2023-06-19T06:06:37;2.00;;;1.00;;
22332;SDS011;11334;36.986;-121.936;2023-06-19T06:09:03;1.25;;;0.50;;
22332;SDS011;11334;36.986;-121.936;2023-06-19T06:11:30;2.60;;;1.10;;
22332;SDS011;11334;36.986;-121.936;2023-06-19T06:13:56;2.35;;;0.95;;
22332;SDS011;11334;36.986;-121.936;2023-06-19T06:16:22;2.38;;;0.90;;
22332;SDS011;11334;36.986;-121.936;2023-06-19T06:18:48;2.05;;;0.82;;
22332;SDS011;11334;36.986;-121.936;2023-06-19T06:21:14;3.35;;;0.98;;
22332;SDS011;11334;36.986;-121.936;2023-06-19T06:23:41;2.15;;;0.90;;
22332;SDS011;11334;36.986;-121.936;2023-06-19T06:26:10;2.38;;;1.25;;
22332;SDS011;11334;36.986;-121.936;2023-06-19T06:28:36;3.63;;;0.98;;
22332;SDS011;11334;36.986;-121.936;2023-06-19T06:31:03;4.40;;;1.13;;
22332;SDS011;11334;36.986;-121.936;2023-06-19T06:33:30;2.05;;;1.60;;
22332;SDS011;11334;36.986;-121.936;2023-06-19T06:35:57;2.35;;;1.13;;
22332;SDS011;11334;36.986;-121.936;2023-06-19T06:38:24;2.33;;;0.95;;
22332;SDS011;11334;36.986;-121.936;2023-06-19T06:40:50;3.55;;;1.10;;
22332;SDS011;11334;36.986;-121.936;2023-06-19T06:43:17;3.22;;;1.10;;
22332;SDS011;11334;36.986;-121.936;2023-06-19T06:45:43;2.80;;;1.10;;
22332;SDS011;11334;36.986;-121.936;2023-06-19T06:48:09;2.03;;;0.95;;
22332;SDS011;11334;36.986;-121.936;2023-06-19T06:50:36;2.63;;;0.95;;
22332;SDS011;11334;36.986;-121.936;2023-06-19T06:53:02;4.78;;;1.00;;
22332;SDS011;11334;36.986;-121.936;2023-06-19T06:55:28;3.03;;;1.00;;
22332;SDS011;11334;36.986;-121.936;2023-06-19T06:57:55;3.08;;;0.90;;
22332;SDS011;11334;36.986;-121.936;2023-06-19T07:00:21;7.32;;;1.27;;
22332;SDS011;11334;36.986;-121.936;2023-06-19T07:02:47;3.75;;;1.17;;
22332;SDS011;11334;36.986;-121.936;2023-06-19T07:05:15;1.55;;;1.00;;
22332;SDS011;11334;36.986;-121.936;2023-06-19T07:07:42;4.57;;;0.90;;
22332;SDS011;11334;36.986;-121.936;2023-06-19T07:10:08;1.85;;;1.00;;
22332;SDS011;11334;36.986;-121.936;2023-06-19T07:12:35;2.75;;;0.85;;
22332;SDS011;11334;36.986;-121.936;2023-06-19T07:15:01;1.83;;;0.98;;
22332;SDS011;11334;36.986;-121.936;2023-06-19T07:17:27;3.00;;;1.08;;
22332;SDS011;11334;36.986;-121.936;2023-06-19T07:19:54;5.82;;;1.35;;
22332;SDS011;11334;36.986;-121.936;2023-06-19T07:22:20;2.40;;;0.95;;
22332;SDS011;11334;36.986;-121.936;2023-06-19T07:24:46;1.92;;;1.00;;
22332;SDS011;11334;36.986;-121.936;2023-06-19T07:27:12;3.55;;;0.90;;
22332;SDS011;11334;36.986;-121.936;2023-06-19T07:29:39;3.45;;;1.20;;
22332;SDS011;11334;36.986;-121.936;2023-06-19T07:32:05;2.63;;;1.10;;
22332;SDS011;11334;36.986;-121.936;2023-06-19T07:34:32;1.83;;;0.80;;
22332;SDS011;11334;36.986;-121.936;2023-06-19T07:36:58;3.55;;;0.90;;
22332;SDS011;11334;36.986;-121.936;2023-06-19T07:39:24;2.50;;;0.90;;
22332;SDS011;11334;36.986;-121.936;2023-06-19T07:41:50;2.60;;;0.80;;
22332;SDS011;11334;36.986;-121.936;2023-06-19T07:44:16;3.95;;;0.85;;
22332;SDS011;11334;36.986;-121.936;2023-06-19T07:46:43;2.35;;;0.85;;
22332;SDS011;11334;36.986;-121.936;2023-06-19T07:49:09;2.63;;;1.08;;
22332;SDS011;11334;36.986;-121.936;2023-06-19T07:51:36;5.78;;;1.55;;
22332;SDS011;11334;36.986;-121.936;2023-06-19T07:54:02;4.57;;;1.40;;
22332;SDS011;11334;36.986;-121.936;2023-06-19T07:56:28;3.25;;;1.08;;
22332;SDS011;11334;36.986;-121.936;2023-06-19T07:58:54;3.05;;;0.85;;
22332;SDS011;11334;36.986;-121.936;2023-06-19T08:01:21;5.75;;;1.33;;
22332;SDS011;11334;36.986;-121.936;2023-06-19T08:03:47;1.27;;;0.70;;
22332;SDS011;11334;36.986;-121.936;2023-06-19T08:06:13;2.22;;;1.08;;
22332;SDS011;11334;36.986;-121.936;2023-06-19T08:08:39;2.92;;;1.20;;
22332;SDS011;11334;36.986;-121.936;2023-06-19T08:11:06;4.68;;;1.27;;
22332;SDS011;11334;36.986;-121.936;2023-06-19T08:13:32;2.78;;;1.10;;
22332;SDS011;11334;36.986;-121.936;2023-06-19T08:15:58;2.53;;;1.20;;
22332;SDS011;11334;36.986;-121.936;2023-06-19T08:18:24;3.08;;;1.55;;
22332;SDS011;11334;36.986;-121.936;2023-06-19T08:20:53;4.82;;;1.27;;
22332;SDS011;11334;36.986;-121.936;2023-06-19T08:23:20;2.75;;;1.08;;
22332;SDS011;11334;36.986;-121.936;2023-06-19T08:25:46;4.95;;;1.30;;
22332;SDS011;11334;36.986;-121.936;2023-06-19T08:28:12;3.78;;;1.35;;
22332;SDS011;11334;36.986;-121.936;2023-06-19T08:30:38;6.72;;;1.70;;
22332;SDS011;11334;36.986;-121.936;2023-06-19T08:33:05;3.85;;;1.80;;
22332;SDS011;11334;36.986;-121.936;2023-06-19T08:35:31;4.28;;;1.77;;
22332;SDS011;11334;36.986;-121.936;2023-06-19T08:37:57;5.80;;;1.50;;
22332;SDS011;11334;36.986;-121.936;2023-06-19T08:40:23;4.95;;;1.38;;
22332;SDS011;11334;36.986;-121.936;2023-06-19T08:42:49;5.45;;;1.65;;
22332;SDS011;11334;36.986;-121.936;2023-06-19T08:45:17;6.15;;;1.38;;
22332;SDS011;11334;36.986;-121.936;2023-06-19T08:47:46;8.27;;;2.15;;
22332;SDS011;11334;36.986;-121.936;2023-06-19T08:50:13;5.50;;;1.92;;
22332;SDS011;11334;36.986;-121.936;2023-06-19T08:52:41;5.63;;;1.83;;
22332;SDS011;11334;36.986;-121.936;2023-06-19T08:55:07;3.42;;;1.73;;
22332;SDS011;11334;36.986;-121.936;2023-06-19T08:57:34;7.07;;;2.20;;
22332;SDS011;11334;36.986;-121.936;2023-06-19T09:00:02;6.68;;;1.70;;
22332;SDS011;11334;36.986;-121.936;2023-06-19T09:02:41;7.70;;;1.67;;
22332;SDS011;11334;36.986;-121.936;2023-06-19T09:05:11;6.68;;;1.70;;
22332;SDS011;11334;36.986;-121.936;2023-06-19T09:07:39;7.95;;;2.22;;
22332;SDS011;11334;36.986;-121.936;2023-06-19T09:10:18;5.38;;;1.67;;
22332;SDS011;11334;36.986;-121.936;2023-06-19T09:13:05;7.18;;;2.10;;
22332;SDS011;11334;36.986;-121.936;2023-06-19T09:15:32;5.97;;;1.90;;
22332;SDS011;11334;36.986;-121.936;2023-06-19T09:18:02;10.88;;;2.50;;
22332;SDS011;11334;36.986;-121.936;2023-06-19T09:20:38;5.38;;;1.45;;
22332;SDS011;11334;36.986;-121.936;2023-06-19T09:23:14;6.38;;;1.52;;
22332;SDS011;11334;36.986;-121.936;2023-06-19T09:25:46;6.07;;;1.98;;
22332;SDS011;11334;36.986;-121.936;2023-06-19T09:28:23;7.63;;;2.15;;
22332;SDS011;11334;36.986;-121.936;2023-06-19T09:30:54;5.78;;;2.25;;
22332;SDS011;11334;36.986;-121.936;2023-06-19T09:33:31;4.65;;;1.88;;
22332;SDS011;11334;36.986;-121.936;2023-06-19T09:36:00;4.40;;;1.70;;
22332;SDS011;11334;36.986;-121.936;2023-06-19T09:38:29;11.38;;;2.35;;
22332;SDS011;11334;36.986;-121.936;2023-06-19T09:40:57;9.57;;;2.70;;
22332;SDS011;11334;36.986;-121.936;2023-06-19T09:43:37;6.38;;;2.10;;
22332;SDS011;11334;36.986;-121.936;2023-06-19T09:46:09;8.50;;;2.13;;
22332;SDS011;11334;36.986;-121.936;2023-06-19T09:48:40;5.55;;;1.75;;
22332;SDS011;11334;36.986;-121.936;2023-06-19T09:51:18;7.65;;;1.98;;
22332;SDS011;11334;36.986;-121.936;2023-06-19T09:53:48;6.32;;;1.70;;
22332;SDS011;11334;36.986;-121.936;2023-06-19T09:56:16;4.03;;;1.55;;
22332;SDS011;11334;36.986;-121.936;2023-06-19T09:58:47;13.40;;;2.20;;
22332;SDS011;11334;36.986;-121.936;2023-06-19T10:01:18;10.05;;;2.08;;
22332;SDS011;11334;36.986;-121.936;2023-06-19T10:03:45;6.72;;;1.95;;
22332;SDS011;11334;36.986;-121.936;2023-06-19T10:06:15;5.05;;;1.58;;
22332;SDS011;11334;36.986;-121.936;2023-06-19T10:08:43;6.88;;;2.33;;
22332;SDS011;11334;36.986;-121.936;2023-06-19T10:11:10;6.68;;;1.65;;
22332;SDS011;11334;36.986;-121.936;2023-06-19T10:13:38;4.95;;;1.83;;
22332;SDS011;11334;36.986;-121.936;2023-06-19T10:16:22;8.10;;;2.63;;
22332;SDS011;11334;36.986;-121.936;2023-06-19T10:18:49;8.80;;;2.35;;
22332;SDS011;11334;36.986;-121.936;2023-06-19T10:21:17;6.85;;;2.10;;
22332;SDS011;11334;36.986;-121.936;2023-06-19T10:23:56;5.47;;;1.83;;
22332;SDS011;11334;36.986;-121.936;2023-06-19T10:26:30;7.55;;;1.83;;
22332;SDS011;11334;36.986;-121.936;2023-06-19T10:29:00;7.00;;;1.90;;
22332;SDS011;11334;36.986;-121.936;2023-06-19T10:31:29;7.53;;;1.80;;
22332;SDS011;11334;36.986;-121.936;2023-06-19T10:33:55;10.15;;;2.40;;
22332;SDS011;11334;36.986;-121.936;2023-06-19T10:36:23;6.75;;;2.30;;
22332;SDS011;11334;36.986;-121.936;2023-06-19T10:38:51;6.97;;;1.95;;
22332;SDS011;11334;36.986;-121.936;2023-06-19T10:41:20;6.20;;;2.08;;
22332;SDS011;11334;36.986;-121.936;2023-06-19T10:43:58;5.47;;;1.63;;
22332;SDS011;11334;36.986;-121.936;2023-06-19T10:46:29;7.10;;;1.90;;
22332;SDS011;11334;36.986;-121.936;2023-06-19T10:48:57;6.30;;;1.83;;
22332;SDS011;11334;36.986;-121.936;2023-06-19T10:51:29;6.47;;;2.00;;
22332;SDS011;11334;36.986;-121.936;2023-06-19T10:53:56;3.47;;;1.90;;
22332;SDS011;11334;36.986;-121.936;2023-06-19T10:56:23;7.32;;;2.80;;
22332;SDS011;11334;36.986;-121.936;2023-06-19T10:59:02;6.75;;;1.90;;
22332;SDS011;11334;36.986;-121.936;2023-06-19T11:01:38;6.10;;;1.90;;
22332;SDS011;11334;36.986;-121.936;2023-06-19T11:04:06;6.43;;;1.98;;
22332;SDS011;11334;36.986;-121.936;2023-06-19T11:06:33;4.20;;;2.05;;
22332;SDS011;11334;36.986;-121.936;2023-06-19T11:09:00;5.97;;;2.17;;
22332;SDS011;11334;36.986;-121.936;2023-06-19T11:11:35;12.82;;;2.33;;
22332;SDS011;11334;36.986;-121.936;2023-06-19T11:14:02;4.55;;;2.00;;
22332;SDS011;11334;36.986;-121.936;2023-06-19T11:16:28;6.05;;;2.05;;
22332;SDS011;11334;36.986;-121.936;2023-06-19T11:18:57;8.95;;;1.90;;
22332;SDS011;11334;36.986;-121.936;2023-06-19T11:21:31;5.72;;;2.00;;
22332;SDS011;11334;36.986;-121.936;2023-06-19T11:24:04;6.60;;;1.80;;
22332;SDS011;11334;36.986;-121.936;2023-06-19T11:26:38;6.28;;;2.08;;
22332;SDS011;11334;36.986;-121.936;2023-06-19T11:31:46;7.00;;;2.15;;
22332;SDS011;11334;36.986;-121.936;2023-06-19T11:34:14;6.40;;;1.98;;
22332;SDS011;11334;36.986;-121.936;2023-06-19T11:36:41;7.82;;;2.60;;
22332;SDS011;11334;36.986;-121.936;2023-06-19T11:39:12;5.72;;;2.50;;
22332;SDS011;11334;36.986;-121.936;2023-06-19T11:41:39;6.78;;;2.28;;
22332;SDS011;11334;36.986;-121.936;2023-06-19T11:44:07;8.50;;;2.17;;
22332;SDS011;11334;36.986;-121.936;2023-06-19T11:46:37;5.03;;;1.90;;
22332;SDS011;11334;36.986;-121.936;2023-06-19T11:49:07;6.95;;;1.42;;
22332;SDS011;11334;36.986;-121.936;2023-06-19T11:51:40;6.40;;;2.10;;
22332;SDS011;11334;36.986;-121.936;2023-06-19T11:54:07;6.00;;;1.52;;
22332;SDS011;11334;36.986;-121.936;2023-06-19T11:56:35;5.18;;;1.90;;
22332;SDS011;11334;36.986;-121.936;2023-06-19T11:59:02;8.02;;;1.58;;
22332;SDS011;11334;36.986;-121.936;2023-06-19T12:01:29;5.45;;;2.22;;
22332;SDS011;11334;36.986;-121.936;2023-06-19T12:03:56;7.60;;;1.98;;
22332;SDS011;11334;36.986;-121.936;2023-06-19T12:06:23;5.35;;;1.92;;
22332;SDS011;11334;36.986;-121.936;2023-06-19T12:08:49;4.95;;;2.08;;
22332;SDS011;11334;36.986;-121.936;2023-06-19T12:11:16;8.90;;;1.92;;
22332;SDS011;11334;36.986;-121.936;2023-06-19T12:13:42;5.47;;;1.90;;
22332;SDS011;11334;36.986;-121.936;2023-06-19T12:16:13;8.80;;;2.25;;
22332;SDS011;11334;36.986;-121.936;2023-06-19T12:18:40;6.15;;;1.48;;
22332;SDS011;11334;36.986;-121.936;2023-06-19T12:21:06;6.32;;;1.63;;
22332;SDS011;11334;36.986;-121.936;2023-06-19T12:23:33;6.07;;;1.83;;
22332;SDS011;11334;36.986;-121.936;2023-06-19T12:25:59;5.47;;;1.60;;
22332;SDS011;11334;36.986;-121.936;2023-06-19T12:28:26;3.88;;;2.03;;
22332;SDS011;11334;36.986;-121.936;2023-06-19T12:30:52;4.65;;;1.58;;
22332;SDS011;11334;36.986;-121.936;2023-06-19T12:33:21;7.35;;;2.22;;
22332;SDS011;11334;36.986;-121.936;2023-06-19T12:35:47;7.70;;;2.33;;
22332;SDS011;11334;36.986;-121.936;2023-06-19T12:38:14;5.07;;;1.50;;
22332;SDS011;11334;36.986;-121.936;2023-06-19T12:40:41;6.20;;;1.70;;
22332;SDS011;11334;36.986;-121.936;2023-06-19T12:43:07;5.43;;;1.67;;
22332;SDS011;11334;36.986;-121.936;2023-06-19T12:45:33;6.60;;;2.13;;
22332;SDS011;11334;36.986;-121.936;2023-06-19T12:47:59;6.00;;;1.60;;
22332;SDS011;11334;36.986;-121.936;2023-06-19T12:50:26;8.15;;;1.35;;
22332;SDS011;11334;36.986;-121.936;2023-06-19T12:52:52;7.95;;;1.60;;
22332;SDS011;11334;36.986;-121.936;2023-06-19T12:55:18;6.10;;;2.15;;
22332;SDS011;11334;36.986;-121.936;2023-06-19T12:57:44;4.45;;;1.65;;
22332;SDS011;11334;36.986;-121.936;2023-06-19T13:00:11;3.53;;;1.63;;
22332;SDS011;11334;36.986;-121.936;2023-06-19T13:02:38;3.40;;;1.52;;
22332;SDS011;11334;36.986;-121.936;2023-06-19T13:05:05;6.43;;;1.75;;
22332;SDS011;11334;36.986;-121.936;2023-06-19T13:07:32;3.30;;;1.80;;
22332;SDS011;11334;36.986;-121.936;2023-06-19T13:09:58;3.05;;;1.40;;
22332;SDS011;11334;36.986;-121.936;2023-06-19T13:12:25;3.92;;;1.45;;
22332;SDS011;11334;36.986;-121.936;2023-06-19T13:14:51;3.58;;;1.40;;
22332;SDS011;11334;36.986;-121.936;2023-06-19T13:17:18;6.82;;;2.20;;
22332;SDS011;11334;36.986;-121.936;2023-06-19T13:19:44;5.15;;;1.58;;
22332;SDS011;11334;36.986;-121.936;2023-06-19T13:22:11;7.05;;;2.00;;
22332;SDS011;11334;36.986;-121.936;2023-06-19T13:24:37;6.00;;;1.65;;
22332;SDS011;11334;36.986;-121.936;2023-06-19T13:27:03;3.95;;;1.50;;
22332;SDS011;11334;36.986;-121.936;2023-06-19T13:29:30;5.10;;;1.67;;
22332;SDS011;11334;36.986;-121.936;2023-06-19T13:31:56;4.90;;;1.60;;
22332;SDS011;11334;36.986;-121.936;2023-06-19T13:34:22;7.57;;;1.92;;
22332;SDS011;11334;36.986;-121.936;2023-06-19T13:36:48;6.10;;;2.20;;
22332;SDS011;11334;36.986;-121.936;2023-06-19T13:39:15;3.00;;;1.40;;
22332;SDS011;11334;36.986;-121.936;2023-06-19T13:41:45;6.07;;;1.80;;
22332;SDS011;11334;36.986;-121.936;2023-06-19T13:44:12;6.05;;;1.83;;
22332;SDS011;11334;36.986;-121.936;2023-06-19T13:46:38;5.03;;;1.80;;
22332;SDS011;11334;36.986;-121.936;2023-06-19T13:49:05;6.70;;;2.13;;
22332;SDS011;11334;36.986;-121.936;2023-06-19T13:51:31;4.13;;;1.80;;
22332;SDS011;11334;36.986;-121.936;2023-06-19T13:53:58;9.68;;;2.47;;
22332;SDS011;11334;36.986;-121.936;2023-06-19T13:56:24;5.25;;;1.73;;
22332;SDS011;11334;36.986;-121.936;2023-06-19T13:58:51;6.10;;;1.50;;
22332;SDS011;11334;36.986;-121.936;2023-06-19T14:01:17;4.90;;;1.90;;
22332;SDS011;11334;36.986;-121.936;2023-06-19T14:03:43;6.18;;;2.00;;
22332;SDS011;11334;36.986;-121.936;2023-06-19T14:06:10;3.75;;;1.83;;
22332;SDS011;11334;36.986;-121.936;2023-06-19T14:08:37;6.22;;;1.77;;
22332;SDS011;11334;36.986;-121.936;2023-06-19T14:11:05;5.88;;;1.85;;
22332;SDS011;11334;36.986;-121.936;2023-06-19T14:13:31;4.47;;;2.33;;
22332;SDS011;11334;36.986;-121.936;2023-06-19T14:15:58;4.70;;;1.80;;